sensor_id;sensor_type;location;lat;lon;timestamp;pressure;altitude;pressure_sealevel;temperature;humidity
21185;BME280;18176;49.502;11.754;2022-08-21T00:02:23;97025.16;;;16.50;100.00
21185;BME280;18176;49.502;11.754;2022-08-21T00:06:21;97020.91;;;16.54;100.00
21185;BME280;18176;49.502;11.754;2022-08-21T00:10:21;97026.28;;;16.64;100.00
21185;BME280;18176;49.502;11.754;2022-08-21T00:14:18;97004.56;;;16.55;100.00
21185;BME280;18176;49.502;11.754;2022-08-21T00:18:17;96972.16;;;16.37;100.00
21185;BME280;18176;49.502;11.754;2022-08-21T00:22:15;96986.06;;;16.49;100.00
21185;BME280;18176;49.502;11.754;2022-08-21T00:26:12;96982.91;;;16.57;100.00
21185;BME280;18176;49.502;11.754;2022-08-21T00:30:11;97005.13;;;16.67;100.00
21185;BME280;18176;49.502;11.754;2022-08-21T00:34:19;96968.16;;;16.34;100.00
21185;BME280;18176;49.502;11.754;2022-08-21T00:38:16;97006.97;;;16.52;100.00
21185;BME280;18176;49.502;11.754;2022-08-21T00:42:14;97009.38;;;16.53;100.00
21185;BME280;18176;49.502;11.754;2022-08-21T00:46:14;96963.56;;;16.14;100.00
21185;BME280;18176;49.502;11.754;2022-08-21T00:50:11;97004.00;;;16.43;100.00
21185;BME280;18176;49.502;11.754;2022-08-21T00:54:22;96984.47;;;16.28;100.00
21185;BME280;18176;49.502;11.754;2022-08-21T00:58:23;96991.34;;;16.18;100.00
21185;BME280;18176;49.502;11.754;2022-08-21T01:02:21;96981.75;;;16.17;100.00
21185;BME280;18176;49.502;11.754;2022-08-21T01:06:19;96973.44;;;16.09;100.00
21185;BME280;18176;49.502;11.754;2022-08-21T01:10:17;96995.13;;;16.17;100.00
21185;BME280;18176;49.502;11.754;2022-08-21T01:14:20;96976.34;;;16.02;100.00
21185;BME280;18176;49.502;11.754;2022-08-21T01:18:19;96997.78;;;16.17;100.00
21185;BME280;18176;49.502;11.754;2022-08-21T01:22:17;96997.22;;;16.05;100.00
21185;BME280;18176;49.502;11.754;2022-08-21T01:26:22;96971.75;;;15.83;100.00
21185;BME280;18176;49.502;11.754;2022-08-21T01:30:29;96991.28;;;15.93;100.00
21185;BME280;18176;49.502;11.754;2022-08-21T01:34:29;96988.59;;;15.93;100.00
21185;BME280;18176;49.502;11.754;2022-08-21T01:38:27;96980.59;;;15.88;100.00
21185;BME280;18176;49.502;11.754;2022-08-21T01:42:25;96995.06;;;15.97;100.00
21185;BME280;18176;49.502;11.754;2022-08-21T01:46:22;96980.06;;;15.96;100.00
21185;BME280;18176;49.502;11.754;2022-08-21T01:50:20;96988.69;;;16.08;100.00
21185;BME280;18176;49.502;11.754;2022-08-21T01:54:18;96986.00;;;16.08;100.00
21185;BME280;18176;49.502;11.754;2022-08-21T01:58:15;96998.28;;;15.99;100.00
21185;BME280;18176;49.502;11.754;2022-08-21T02:02:12;96958.13;;;15.89;100.00
21185;BME280;18176;49.502;11.754;2022-08-21T02:06:15;96974.72;;;15.91;100.00
21185;BME280;18176;49.502;11.754;2022-08-21T02:10:24;96998.50;;;15.98;100.00
21185;BME280;18176;49.502;11.754;2022-08-21T02:14:22;96979.75;;;15.78;100.00
21185;BME280;18176;49.502;11.754;2022-08-21T02:18:28;96973.00;;;15.60;100.00
21185;BME280;18176;49.502;11.754;2022-08-21T02:22:26;96967.00;;;15.43;100.00
21185;BME280;18176;49.502;11.754;2022-08-21T02:26:23;96985.25;;;15.51;100.00
21185;BME280;18176;49.502;11.754;2022-08-21T02:30:29;96982.59;;;15.56;100.00
21185;BME280;18176;49.502;11.754;2022-08-21T02:34:26;96968.13;;;15.47;100.00
21185;BME280;18176;49.502;11.754;2022-08-21T02:38:30;96963.56;;;15.48;100.00
21185;BME280;18176;49.502;11.754;2022-08-21T02:42:27;96947.31;;;15.49;100.00
21185;BME280;18176;49.502;11.754;2022-08-21T02:46:24;96955.88;;;15.56;100.00
21185;BME280;18176;49.502;11.754;2022-08-21T02:50:28;96986.41;;;15.75;100.00
21185;BME280;18176;49.502;11.754;2022-08-21T02:54:25;96986.88;;;15.62;100.00
21185;BME280;18176;49.502;11.754;2022-08-21T02:58:28;96982.16;;;15.79;100.00
21185;BME280;18176;49.502;11.754;2022-08-21T03:02:26;96960.75;;;15.69;100.00
21185;BME280;18176;49.502;11.754;2022-08-21T03:06:23;96967.16;;;15.73;100.00
21185;BME280;18176;49.502;11.754;2022-08-21T03:10:21;96980.22;;;15.65;100.00
21185;BME280;18176;49.502;11.754;2022-08-21T03:14:18;96986.06;;;15.62;100.00
21185;BME280;18176;49.502;11.754;2022-08-21T03:18:18;96982.59;;;15.56;100.00
21185;BME280;18176;49.502;11.754;2022-08-21T03:22:15;96964.25;;;15.28;100.00
21185;BME280;18176;49.502;11.754;2022-08-21T03:26:12;96981.41;;;15.42;100.00
21185;BME280;18176;49.502;11.754;2022-08-21T03:30:11;96972.28;;;15.38;100.00
21185;BME280;18176;49.502;11.754;2022-08-21T03:34:08;96977.09;;;15.36;100.00
21185;BME280;18176;49.502;11.754;2022-08-21T03:38:06;96954.03;;;15.15;100.00
21185;BME280;18176;49.502;11.754;2022-08-21T03:42:04;96962.78;;;15.10;100.00
21185;BME280;18176;49.502;11.754;2022-08-21T03:46:03;96990.84;;;15.13;100.00
21185;BME280;18176;49.502;11.754;2022-08-21T03:50:03;96962.66;;;14.90;100.00
21185;BME280;18176;49.502;11.754;2022-08-21T03:54:03;96992.91;;;15.06;100.00
21185;BME280;18176;49.502;11.754;2022-08-21T03:58:00;96940.38;;;14.69;100.00
21185;BME280;18176;49.502;11.754;2022-08-21T04:02:16;96995.72;;;15.21;100.00
21185;BME280;18176;49.502;11.754;2022-08-21T04:06:16;96988.31;;;15.33;100.00
21185;BME280;18176;49.502;11.754;2022-08-21T04:10:14;96986.69;;;15.32;100.00
21185;BME280;18176;49.502;11.754;2022-08-21T04:14:13;96997.00;;;15.55;100.00
21185;BME280;18176;49.502;11.754;2022-08-21T04:18:11;97005.38;;;15.74;100.00
21185;BME280;18176;49.502;11.754;2022-08-21T04:22:08;97001.31;;;15.66;100.00
21185;BME280;18176;49.502;11.754;2022-08-21T04:26:05;96999.69;;;15.60;100.00
21185;BME280;18176;49.502;11.754;2022-08-21T04:30:08;97003.44;;;15.64;100.00
21185;BME280;18176;49.502;11.754;2022-08-21T04:34:05;97016.38;;;15.87;100.00
21185;BME280;18176;49.502;11.754;2022-08-21T04:38:03;96996.56;;;15.73;100.00
21185;BME280;18176;49.502;11.754;2022-08-21T04:42:00;96985.84;;;15.68;100.00
21185;BME280;18176;49.502;11.754;2022-08-21T04:45:57;97011.88;;;15.93;100.00
21185;BME280;18176;49.502;11.754;2022-08-21T04:49:54;97021.53;;;16.04;100.00
21185;BME280;18176;49.502;11.754;2022-08-21T04:53:58;97035.75;;;16.20;100.00
21185;BME280;18176;49.502;11.754;2022-08-21T04:57:57;97034.72;;;16.31;100.00
21185;BME280;18176;49.502;11.754;2022-08-21T05:01:54;97036.06;;;16.33;100.00
21185;BME280;18176;49.502;11.754;2022-08-21T05:05:53;97025.09;;;16.40;100.00
21185;BME280;18176;49.502;11.754;2022-08-21T05:09:52;97028.63;;;16.50;100.00
21185;BME280;18176;49.502;11.754;2022-08-21T05:13:50;97036.44;;;16.57;100.00
21185;BME280;18176;49.502;11.754;2022-08-21T05:17:53;97026.75;;;16.51;100.00
21185;BME280;18176;49.502;11.754;2022-08-21T05:21:57;97023.53;;;16.49;100.00
21185;BME280;18176;49.502;11.754;2022-08-21T05:25:54;97016.56;;;16.43;100.00
21185;BME280;18176;49.502;11.754;2022-08-21T05:29:52;97049.25;;;16.65;100.00
21185;BME280;18176;49.502;11.754;2022-08-21T05:33:50;97055.16;;;16.72;100.00
21185;BME280;18176;49.502;11.754;2022-08-21T05:37:47;97053.03;;;16.74;100.00
21185;BME280;18176;49.502;11.754;2022-08-21T05:41:44;97055.97;;;16.67;100.00
21185;BME280;18176;49.502;11.754;2022-08-21T05:45:42;97057.31;;;16.70;100.00
21185;BME280;18176;49.502;11.754;2022-08-21T05:49:40;97049.84;;;16.82;100.00
21185;BME280;18176;49.502;11.754;2022-08-21T05:53:38;97043.41;;;16.98;100.00
21185;BME280;18176;49.502;11.754;2022-08-21T05:57:36;97048.25;;;17.01;100.00
21185;BME280;18176;49.502;11.754;2022-08-21T06:01:33;97047.69;;;17.39;100.00
21185;BME280;18176;49.502;11.754;2022-08-21T06:05:30;97068.34;;;17.54;100.00
21185;BME280;18176;49.502;11.754;2022-08-21T06:09:33;97050.38;;;17.49;100.00
21185;BME280;18176;49.502;11.754;2022-08-21T06:13:32;97073.94;;;17.68;100.00
21185;BME280;18176;49.502;11.754;2022-08-21T06:17:30;97072.84;;;17.74;100.00
21185;BME280;18176;49.502;11.754;2022-08-21T06:21:27;97062.41;;;17.67;100.00
21185;BME280;18176;49.502;11.754;2022-08-21T06:25:25;97055.19;;;17.63;100.00
21185;BME280;18176;49.502;11.754;2022-08-21T06:29:22;97055.72;;;17.70;100.00
21185;BME280;18176;49.502;11.754;2022-08-21T06:33:19;97089.69;;;17.89;100.00
21185;BME280;18176;49.502;11.754;2022-08-21T06:37:17;97075.38;;;18.19;100.00
21185;BME280;18176;49.502;11.754;2022-08-21T06:41:14;97067.94;;;18.01;100.00
21185;BME280;18176;49.502;11.754;2022-08-21T06:45:11;97055.00;;;18.18;100.00
21185;BME280;18176;49.502;11.754;2022-08-21T06:49:08;97072.34;;;18.51;100.00
21185;BME280;18176;49.502;11.754;2022-08-21T06:53:20;97065.66;;;18.87;100.00
21185;BME280;18176;49.502;11.754;2022-08-21T06:57:17;97061.59;;;18.95;100.00
21185;BME280;18176;49.502;11.754;2022-08-21T07:01:14;97044.00;;;18.73;100.00
21185;BME280;18176;49.502;11.754;2022-08-21T07:05:12;97060.63;;;18.80;100.00
21185;BME280;18176;49.502;11.754;2022-08-21T07:09:14;97071.84;;;18.87;100.00
21185;BME280;18176;49.502;11.754;2022-08-21T07:13:12;97011.81;;;18.73;100.00
21185;BME280;18176;49.502;11.754;2022-08-21T07:17:09;97050.91;;;19.18;100.00
21185;BME280;18176;49.502;11.754;2022-08-21T07:21:08;97062.41;;;19.29;100.00
21185;BME280;18176;49.502;11.754;2022-08-21T07:25:06;97067.91;;;19.09;100.00
21185;BME280;18176;49.502;11.754;2022-08-21T07:29:04;97050.75;;;19.05;100.00
21185;BME280;18176;49.502;11.754;2022-08-21T07:33:01;97055.31;;;19.04;100.00
21185;BME280;18176;49.502;11.754;2022-08-21T07:36:58;97044.91;;;18.98;100.00
21185;BME280;18176;49.502;11.754;2022-08-21T07:41:16;97065.59;;;19.31;100.00
21185;BME280;18176;49.502;11.754;2022-08-21T07:45:14;97041.06;;;19.42;100.00
21185;BME280;18176;49.502;11.754;2022-08-21T07:49:12;97064.28;;;19.57;100.00
21185;BME280;18176;49.502;11.754;2022-08-21T07:53:09;97054.28;;;19.34;100.00
21185;BME280;18176;49.502;11.754;2022-08-21T07:57:06;97070.34;;;19.44;100.00
21185;BME280;18176;49.502;11.754;2022-08-21T08:01:05;97041.34;;;19.41;100.00
21185;BME280;18176;49.502;11.754;2022-08-21T08:05:07;97061.22;;;19.45;100.00
21185;BME280;18176;49.502;11.754;2022-08-21T08:09:04;97019.41;;;19.29;100.00
21185;BME280;18176;49.502;11.754;2022-08-21T08:13:01;97041.22;;;19.56;100.00
21185;BME280;18176;49.502;11.754;2022-08-21T08:16:58;97066.13;;;19.61;100.00
21185;BME280;18176;49.502;11.754;2022-08-21T08:20:55;97055.34;;;19.67;100.00
21185;BME280;18176;49.502;11.754;2022-08-21T08:24:53;97044.78;;;19.75;99.42
21185;BME280;18176;49.502;11.754;2022-08-21T08:28:51;97062.63;;;19.90;98.17
21185;BME280;18176;49.502;11.754;2022-08-21T08:32:48;97066.16;;;19.85;98.12
21185;BME280;18176;49.502;11.754;2022-08-21T08:36:46;97044.84;;;19.70;100.00
21185;BME280;18176;49.502;11.754;2022-08-21T08:41:17;97066.88;;;19.96;100.00
21185;BME280;18176;49.502;11.754;2022-08-21T08:45:20;97064.38;;;20.28;98.38
21185;BME280;18176;49.502;11.754;2022-08-21T08:53:54;97075.09;;;20.52;95.79
21185;BME280;18176;49.502;11.754;2022-08-21T08:57:55;97078.59;;;20.71;95.96
21185;BME280;18176;49.502;11.754;2022-08-21T09:01:52;97071.31;;;20.53;94.28
21185;BME280;18176;49.502;11.754;2022-08-21T09:10:17;97074.25;;;21.12;92.80
21185;BME280;18176;49.502;11.754;2022-08-21T09:14:50;97073.75;;;21.42;90.62
21185;BME280;18176;49.502;11.754;2022-08-21T09:19:17;97057.28;;;21.90;83.26
21185;BME280;18176;49.502;11.754;2022-08-21T09:27:42;97044.09;;;23.14;78.58
21185;BME280;18176;49.502;11.754;2022-08-21T09:31:40;97046.88;;;23.23;77.33
21185;BME280;18176;49.502;11.754;2022-08-21T09:35:52;97059.91;;;23.21;75.62
21185;BME280;18176;49.502;11.754;2022-08-21T09:39:50;97046.94;;;23.09;75.90
21185;BME280;18176;49.502;11.754;2022-08-21T09:43:53;97047.38;;;23.47;75.25
21185;BME280;18176;49.502;11.754;2022-08-21T09:47:50;97049.56;;;23.67;74.77
21185;BME280;18176;49.502;11.754;2022-08-21T09:51:52;97035.06;;;23.63;74.00
21185;BME280;18176;49.502;11.754;2022-08-21T09:56:02;97058.41;;;24.12;74.74
21185;BME280;18176;49.502;11.754;2022-08-21T10:00:31;97049.22;;;23.99;74.07
21185;BME280;18176;49.502;11.754;2022-08-21T10:04:36;97054.88;;;23.81;74.90
21185;BME280;18176;49.502;11.754;2022-08-21T10:08:35;97049.81;;;24.18;73.59
21185;BME280;18176;49.502;11.754;2022-08-21T10:17:39;97037.22;;;25.04;68.15
21185;BME280;18176;49.502;11.754;2022-08-21T10:31:08;97031.34;;;28.71;54.93
21185;BME280;18176;49.502;11.754;2022-08-21T10:35:28;97034.03;;;29.50;51.94
21185;BME280;18176;49.502;11.754;2022-08-21T10:39:36;97025.00;;;30.71;47.83
21185;BME280;18176;49.502;11.754;2022-08-21T10:43:57;97005.41;;;29.88;48.49
21185;BME280;18176;49.502;11.754;2022-08-21T10:48:05;97030.44;;;28.30;53.07
21185;BME280;18176;49.502;11.754;2022-08-21T10:52:51;97017.84;;;26.91;56.44
21185;BME280;18176;49.502;11.754;2022-08-21T10:57:04;97013.19;;;27.25;55.50
21185;BME280;18176;49.502;11.754;2022-08-21T11:01:20;96984.09;;;26.63;57.01
21185;BME280;18176;49.502;11.754;2022-08-21T11:05:33;96996.59;;;26.85;58.57
21185;BME280;18176;49.502;11.754;2022-08-21T11:09:32;96994.06;;;26.59;59.41
21185;BME280;18176;49.502;11.754;2022-08-21T11:13:56;97007.91;;;28.58;53.01
21185;BME280;18176;49.502;11.754;2022-08-21T11:23:05;96998.19;;;30.61;46.80
21185;BME280;18176;49.502;11.754;2022-08-21T11:32:12;97003.59;;;31.95;42.85
21185;BME280;18176;49.502;11.754;2022-08-21T11:36:23;97004.63;;;32.10;43.34
21185;BME280;18176;49.502;11.754;2022-08-21T11:41:03;96981.69;;;31.11;44.24
21185;BME280;18176;49.502;11.754;2022-08-21T11:45:34;96992.63;;;31.95;41.42
21185;BME280;18176;49.502;11.754;2022-08-21T11:49:42;96991.53;;;32.75;40.25
21185;BME280;18176;49.502;11.754;2022-08-21T12:02:29;96967.75;;;35.12;35.91
21185;BME280;18176;49.502;11.754;2022-08-21T12:06:41;96958.72;;;33.52;38.73
21185;BME280;18176;49.502;11.754;2022-08-21T12:10:46;96961.41;;;33.08;39.03
21185;BME280;18176;49.502;11.754;2022-08-21T12:14:48;96951.31;;;33.19;38.37
21185;BME280;18176;49.502;11.754;2022-08-21T12:18:45;96955.69;;;33.60;38.08
21185;BME280;18176;49.502;11.754;2022-08-21T12:22:53;96943.13;;;33.59;38.26
21185;BME280;18176;49.502;11.754;2022-08-21T12:26:58;96937.34;;;33.31;37.87
21185;BME280;18176;49.502;11.754;2022-08-21T12:30:56;96933.66;;;33.53;36.78
21185;BME280;18176;49.502;11.754;2022-08-21T12:39:11;96922.56;;;33.46;36.26
21185;BME280;18176;49.502;11.754;2022-08-21T12:43:33;96897.03;;;33.05;36.29
21185;BME280;18176;49.502;11.754;2022-08-21T12:47:55;96914.31;;;33.06;36.43
21185;BME280;18176;49.502;11.754;2022-08-21T12:52:16;96900.59;;;33.06;34.56
21185;BME280;18176;49.502;11.754;2022-08-21T12:56:22;96893.13;;;33.90;33.97
21185;BME280;18176;49.502;11.754;2022-08-21T13:00:25;96893.56;;;33.12;34.88
21185;BME280;18176;49.502;11.754;2022-08-21T13:04:34;96897.13;;;33.12;35.61
21185;BME280;18176;49.502;11.754;2022-08-21T13:08:35;96895.09;;;33.46;34.42
21185;BME280;18176;49.502;11.754;2022-08-21T13:12:43;96880.00;;;33.26;33.96
21185;BME280;18176;49.502;11.754;2022-08-21T13:16:41;96899.41;;;33.07;32.94
21185;BME280;18176;49.502;11.754;2022-08-21T13:20:40;96890.69;;;32.38;34.61
21185;BME280;18176;49.502;11.754;2022-08-21T13:24:39;96894.28;;;33.05;34.52
21185;BME280;18176;49.502;11.754;2022-08-21T13:28:39;96891.84;;;33.37;31.37
21185;BME280;18176;49.502;11.754;2022-08-21T13:32:46;96885.63;;;33.40;32.73
21185;BME280;18176;49.502;11.754;2022-08-21T13:36:45;96882.06;;;33.83;32.06
21185;BME280;18176;49.502;11.754;2022-08-21T13:44:48;96863.19;;;31.79;33.88
21185;BME280;18176;49.502;11.754;2022-08-21T13:48:45;96866.00;;;31.60;35.22
21185;BME280;18176;49.502;11.754;2022-08-21T13:57:29;96877.50;;;31.95;35.34
21185;BME280;18176;49.502;11.754;2022-08-21T14:01:34;96863.81;;;32.21;34.79
21185;BME280;18176;49.502;11.754;2022-08-21T14:05:37;96861.22;;;32.62;34.30
21185;BME280;18176;49.502;11.754;2022-08-21T14:09:42;96875.25;;;32.27;34.00
21185;BME280;18176;49.502;11.754;2022-08-21T14:17:52;96869.69;;;33.16;32.22
21185;BME280;18176;49.502;11.754;2022-08-21T14:21:49;96863.19;;;32.98;31.87
21185;BME280;18176;49.502;11.754;2022-08-21T14:25:46;96849.34;;;32.50;32.72
21185;BME280;18176;49.502;11.754;2022-08-21T14:29:44;96867.16;;;32.37;33.39
21185;BME280;18176;49.502;11.754;2022-08-21T14:33:41;96866.13;;;32.19;33.32
21185;BME280;18176;49.502;11.754;2022-08-21T14:37:42;96850.25;;;32.02;34.35
21185;BME280;18176;49.502;11.754;2022-08-21T14:41:39;96841.94;;;32.91;32.76
21185;BME280;18176;49.502;11.754;2022-08-21T14:45:36;96855.53;;;32.47;33.05
21185;BME280;18176;49.502;11.754;2022-08-21T14:49:37;96853.41;;;32.04;32.97
21185;BME280;18176;49.502;11.754;2022-08-21T14:53:34;96853.13;;;31.64;33.44
21185;BME280;18176;49.502;11.754;2022-08-21T14:57:31;96829.91;;;31.32;33.76
21185;BME280;18176;49.502;11.754;2022-08-21T15:01:29;96850.75;;;32.11;33.36
21185;BME280;18176;49.502;11.754;2022-08-21T15:05:26;96851.53;;;31.85;32.86
21185;BME280;18176;49.502;11.754;2022-08-21T15:09:29;96841.25;;;31.79;31.81
21185;BME280;18176;49.502;11.754;2022-08-21T15:13:27;96845.66;;;31.15;32.56
21185;BME280;18176;49.502;11.754;2022-08-21T15:17:25;96836.66;;;31.60;32.04
21185;BME280;18176;49.502;11.754;2022-08-21T15:21:22;96828.25;;;32.28;31.32
21185;BME280;18176;49.502;11.754;2022-08-21T15:25:19;96832.28;;;32.68;30.69
21185;BME280;18176;49.502;11.754;2022-08-21T15:29:16;96825.47;;;32.54;29.98
21185;BME280;18176;49.502;11.754;2022-08-21T15:33:18;96828.22;;;32.54;31.62
21185;BME280;18176;49.502;11.754;2022-08-21T15:37:16;96807.25;;;32.73;29.36
21185;BME280;18176;49.502;11.754;2022-08-21T15:41:13;96801.75;;;32.73;28.78
21185;BME280;18176;49.502;11.754;2022-08-21T15:45:12;96823.78;;;33.60;27.79
21185;BME280;18176;49.502;11.754;2022-08-21T15:49:10;96809.25;;;34.18;28.09
21185;BME280;18176;49.502;11.754;2022-08-21T15:53:08;96796.31;;;34.25;27.62
21185;BME280;18176;49.502;11.754;2022-08-21T15:57:05;96813.00;;;33.88;27.47
21185;BME280;18176;49.502;11.754;2022-08-21T16:01:02;96809.97;;;34.04;27.07
21185;BME280;18176;49.502;11.754;2022-08-21T16:04:59;96803.75;;;34.18;27.17
21185;BME280;18176;49.502;11.754;2022-08-21T16:08:58;96797.47;;;34.21;26.96
21185;BME280;18176;49.502;11.754;2022-08-21T16:13:02;96804.53;;;34.18;27.34
21185;BME280;18176;49.502;11.754;2022-08-21T16:17:00;96781.84;;;34.49;27.27
21185;BME280;18176;49.502;11.754;2022-08-21T16:20:57;96788.28;;;34.92;26.83
21185;BME280;18176;49.502;11.754;2022-08-21T16:24:54;96784.34;;;34.93;25.87
21185;BME280;18176;49.502;11.754;2022-08-21T16:28:55;96792.22;;;34.88;26.17
21185;BME280;18176;49.502;11.754;2022-08-21T16:32:54;96762.56;;;34.42;26.20
21185;BME280;18176;49.502;11.754;2022-08-21T16:36:52;96792.56;;;33.35;26.83
21185;BME280;18176;49.502;11.754;2022-08-21T16:40:50;96779.94;;;31.61;28.59
21185;BME280;18176;49.502;11.754;2022-08-21T16:44:47;96784.63;;;31.60;29.30
21185;BME280;18176;49.502;11.754;2022-08-21T16:48:47;96777.50;;;31.56;29.98
21185;BME280;18176;49.502;11.754;2022-08-21T16:52:44;96774.41;;;30.67;30.14
21185;BME280;18176;49.502;11.754;2022-08-21T16:56:41;96781.81;;;30.09;31.26
21185;BME280;18176;49.502;11.754;2022-08-21T17:00:43;96779.63;;;29.64;31.95
21185;BME280;18176;49.502;11.754;2022-08-21T17:04:41;96778.56;;;29.68;31.64
21185;BME280;18176;49.502;11.754;2022-08-21T17:08:38;96789.13;;;29.35;32.88
21185;BME280;18176;49.502;11.754;2022-08-21T17:12:35;96788.41;;;29.07;33.11
21185;BME280;18176;49.502;11.754;2022-08-21T17:16:33;96791.91;;;28.48;33.62
21185;BME280;18176;49.502;11.754;2022-08-21T17:20:31;96796.06;;;28.30;34.12
21185;BME280;18176;49.502;11.754;2022-08-21T17:24:30;96780.72;;;27.98;34.70
21185;BME280;18176;49.502;11.754;2022-08-21T17:28:34;96791.63;;;27.86;35.45
21185;BME280;18176;49.502;11.754;2022-08-21T17:32:32;96782.53;;;27.94;36.01
21185;BME280;18176;49.502;11.754;2022-08-21T17:36:30;96784.19;;;27.71;36.25
21185;BME280;18176;49.502;11.754;2022-08-21T17:40:28;96791.94;;;27.45;37.31
21185;BME280;18176;49.502;11.754;2022-08-21T17:44:25;96793.72;;;27.17;37.69
21185;BME280;18176;49.502;11.754;2022-08-21T17:48:23;96788.84;;;26.98;39.35
21185;BME280;18176;49.502;11.754;2022-08-21T17:52:22;96758.13;;;26.53;39.25
21185;BME280;18176;49.502;11.754;2022-08-21T17:56:20;96794.44;;;26.36;40.64
21185;BME280;18176;49.502;11.754;2022-08-21T18:00:19;96793.13;;;26.01;42.09
21185;BME280;18176;49.502;11.754;2022-08-21T18:04:17;96773.09;;;25.43;43.67
21185;BME280;18176;49.502;11.754;2022-08-21T18:08:14;96795.59;;;25.06;46.85
21185;BME280;18176;49.502;11.754;2022-08-21T18:12:12;96791.59;;;24.49;48.57
21185;BME280;18176;49.502;11.754;2022-08-21T18:16:11;96809.13;;;24.08;49.75
21185;BME280;18176;49.502;11.754;2022-08-21T18:20:19;96810.66;;;23.58;51.16
21185;BME280;18176;49.502;11.754;2022-08-21T18:24:16;96811.19;;;23.21;52.42
21185;BME280;18176;49.502;11.754;2022-08-21T18:28:16;96800.22;;;22.86;54.74
21185;BME280;18176;49.502;11.754;2022-08-21T18:32:22;96797.59;;;22.64;56.04
21185;BME280;18176;49.502;11.754;2022-08-21T18:36:28;96798.59;;;22.24;57.61
21185;BME280;18176;49.502;11.754;2022-08-21T18:40:25;96809.66;;;22.00;58.56
21185;BME280;18176;49.502;11.754;2022-08-21T18:44:24;96814.63;;;21.85;60.78
21185;BME280;18176;49.502;11.754;2022-08-21T18:48:23;96828.09;;;21.71;61.74
21185;BME280;18176;49.502;11.754;2022-08-21T18:52:25;96810.06;;;21.44;62.94
21185;BME280;18176;49.502;11.754;2022-08-21T18:56:26;96819.97;;;21.35;64.45
21185;BME280;18176;49.502;11.754;2022-08-21T19:00:33;96826.66;;;21.38;65.95
21185;BME280;18176;49.502;11.754;2022-08-21T19:04:31;96834.75;;;21.38;65.69
21185;BME280;18176;49.502;11.754;2022-08-21T19:08:40;96842.31;;;21.49;65.41
21185;BME280;18176;49.502;11.754;2022-08-21T19:12:38;96838.50;;;21.50;67.34
21185;BME280;18176;49.502;11.754;2022-08-21T19:16:38;96839.91;;;21.61;67.36
21185;BME280;18176;49.502;11.754;2022-08-21T19:20:43;96834.34;;;21.44;67.71
21185;BME280;18176;49.502;11.754;2022-08-21T19:24:43;96835.53;;;21.38;68.47
21185;BME280;18176;49.502;11.754;2022-08-21T19:28:52;96869.28;;;21.49;68.36
21185;BME280;18176;49.502;11.754;2022-08-21T19:32:49;96841.34;;;21.32;67.93
21185;BME280;18176;49.502;11.754;2022-08-21T19:36:47;96845.31;;;21.34;66.26
21185;BME280;18176;49.502;11.754;2022-08-21T19:40:44;96855.28;;;21.07;64.42
21185;BME280;18176;49.502;11.754;2022-08-21T19:44:43;96859.09;;;21.19;63.43
21185;BME280;18176;49.502;11.754;2022-08-21T19:48:41;96861.06;;;21.14;64.75
21185;BME280;18176;49.502;11.754;2022-08-21T19:52:42;96864.97;;;21.08;66.69
21185;BME280;18176;49.502;11.754;2022-08-21T19:56:48;96873.00;;;20.94;67.59
21185;BME280;18176;49.502;11.754;2022-08-21T20:00:45;96862.53;;;20.79;69.14
21185;BME280;18176;49.502;11.754;2022-08-21T20:04:43;96867.56;;;20.67;69.74
21185;BME280;18176;49.502;11.754;2022-08-21T20:09:01;96866.81;;;20.48;70.54
21185;BME280;18176;49.502;11.754;2022-08-21T20:13:03;96830.72;;;19.98;70.94
21185;BME280;18176;49.502;11.754;2022-08-21T20:17:09;96869.66;;;20.00;72.23
21185;BME280;18176;49.502;11.754;2022-08-21T20:21:10;96870.97;;;19.84;73.19
21185;BME280;18176;49.502;11.754;2022-08-21T20:25:10;96861.50;;;19.68;73.27
21185;BME280;18176;49.502;11.754;2022-08-21T20:29:09;96867.56;;;19.55;75.20
21185;BME280;18176;49.502;11.754;2022-08-21T20:33:06;96854.50;;;19.48;79.13
21185;BME280;18176;49.502;11.754;2022-08-21T20:37:04;96876.03;;;19.43;80.80
21185;BME280;18176;49.502;11.754;2022-08-21T20:41:02;96876.63;;;19.40;80.28
21185;BME280;18176;49.502;11.754;2022-08-21T20:44:59;96879.81;;;19.19;81.57
21185;BME280;18176;49.502;11.754;2022-08-21T20:49:04;96862.09;;;18.94;81.56
21185;BME280;18176;49.502;11.754;2022-08-21T20:53:13;96875.16;;;19.01;82.15
21185;BME280;18176;49.502;11.754;2022-08-21T21:01:11;96880.03;;;18.70;83.31
21185;BME280;18176;49.502;11.754;2022-08-21T21:09:44;96890.88;;;18.60;84.98
21185;BME280;18176;49.502;11.754;2022-08-21T21:14:06;96869.72;;;18.53;85.15
21185;BME280;18176;49.502;11.754;2022-08-21T21:18:18;96878.88;;;18.47;85.39
21185;BME280;18176;49.502;11.754;2022-08-21T21:22:54;96898.09;;;18.59;85.51
21185;BME280;18176;49.502;11.754;2022-08-21T21:26:58;96896.59;;;18.48;86.41
21185;BME280;18176;49.502;11.754;2022-08-21T21:31:10;96887.03;;;18.32;88.42
21185;BME280;18176;49.502;11.754;2022-08-21T21:35:13;96906.88;;;18.31;88.54
21185;BME280;18176;49.502;11.754;2022-08-21T21:49:34;96912.78;;;18.28;88.72
21185;BME280;18176;49.502;11.754;2022-08-21T21:54:02;96926.84;;;18.10;89.95
21185;BME280;18176;49.502;11.754;2022-08-21T21:58:33;96927.19;;;17.98;89.84
21185;BME280;18176;49.502;11.754;2022-08-21T22:07:09;96935.88;;;17.75;91.58
21185;BME280;18176;49.502;11.754;2022-08-21T22:15:37;96934.59;;;17.63;92.03
21185;BME280;18176;49.502;11.754;2022-08-21T22:19:40;96937.81;;;17.60;92.40
21185;BME280;18176;49.502;11.754;2022-08-21T22:23:50;96934.09;;;17.45;92.86
21185;BME280;18176;49.502;11.754;2022-08-21T22:27:58;96918.31;;;17.34;92.23